createdAt,value
2018-07-03T00:01:51.781Z,38.75
2018-07-03T00:04:35.194Z,39.25
2018-07-03T00:07:09.345Z,39.19
2018-07-03T00:09:43.748Z,39.33
2018-07-03T00:12:21.931Z,39.72
2018-07-03T00:14:56.341Z,40.00
2018-07-03T00:17:29.103Z,40.26
2018-07-03T00:20:03.797Z,40.26
2018-07-03T00:22:37.264Z,40.11
2018-07-03T00:25:10.896Z,39.97
2018-07-03T00:27:44.248Z,40.16
2018-07-03T00:30:16.052Z,40.48
2018-07-03T00:32:48.524Z,40.53
2018-07-03T00:35:22.460Z,40.48
2018-07-03T00:37:55.345Z,40.71
2018-07-03T00:40:28.153Z,41.06
2018-07-03T00:43:03.324Z,41.26
2018-07-03T00:45:36.564Z,41.09
2018-07-03T00:48:10.274Z,40.92
2018-07-03T00:50:44.130Z,40.63
2018-07-03T00:53:16.652Z,40.74
2018-07-03T00:55:49.980Z,40.68
2018-07-03T00:58:22.852Z,40.52
2018-07-03T01:00:55.745Z,40.61
2018-07-03T01:03:28.172Z,40.45
2018-07-03T01:06:03.108Z,40.88
2018-07-03T01:08:36.034Z,41.08
2018-07-03T01:11:09.882Z,42.36
2018-07-03T01:13:44.694Z,42.48
2018-07-03T01:16:19.593Z,42.42
2018-07-03T01:18:56.130Z,42.99
2018-07-03T01:21:29.980Z,43.53
2018-07-03T01:24:02.662Z,44.11
2018-07-03T01:26:35.951Z,44.45
2018-07-03T01:29:10.735Z,44.91
2018-07-03T01:31:45.512Z,45.43
2018-07-03T01:34:18.916Z,46.87
2018-07-03T01:36:54.170Z,46.71
2018-07-03T01:39:26.884Z,46.67
2018-07-03T01:42:01.494Z,46.99
2018-07-03T01:44:38.045Z,47.38
2018-07-03T01:47:11.187Z,47.78
2018-07-03T01:49:43.773Z,47.84
2018-07-03T01:52:16.601Z,48.66
2018-07-03T01:54:51.472Z,48.05
2018-07-03T01:57:24.016Z,47.77
2018-07-03T01:59:56.532Z,48.02
2018-07-03T02:02:29.373Z,47.72
2018-07-03T02:05:01.792Z,47.22
2018-07-03T02:07:35.580Z,47.28
2018-07-03T02:10:08.892Z,49.16
2018-07-03T02:12:41.382Z,49.53
2018-07-03T02:15:15.659Z,50.28
2018-07-03T02:17:48.565Z,51.72
2018-07-03T02:20:21.238Z,52.34
2018-07-03T02:22:54.607Z,52.86
2018-07-03T02:25:27.640Z,53.23
2018-07-03T02:28:00.075Z,53.41
2018-07-03T02:30:32.557Z,53.54
2018-07-03T02:33:07.455Z,53.94
2018-07-03T02:35:39.954Z,53.96
2018-07-03T02:38:12.497Z,54.23
2018-07-03T02:40:45.314Z,54.11
2018-07-03T02:43:17.985Z,53.99
2018-07-03T02:45:50.485Z,54.27
2018-07-03T02:48:23.516Z,54.58
2018-07-03T02:50:56.056Z,54.93
2018-07-03T02:53:28.621Z,55.13
2018-07-03T02:56:01.705Z,55.18
2018-07-03T03:01:45.874Z,54.89
2018-07-03T03:04:18.645Z,54.90
2018-07-03T03:06:51.254Z,55.47
2018-07-03T03:09:24.382Z,55.71
2018-07-03T03:15:22.448Z,57.15
2018-07-03T03:21:28.486Z,57.62
2018-07-03T03:24:02.193Z,58.40
2018-07-03T03:26:35.033Z,59.86
2018-07-03T03:29:08.741Z,59.67
2018-07-03T03:31:41.347Z,60.57
2018-07-03T03:34:14.157Z,60.23
2018-07-03T03:36:47.862Z,60.52
2018-07-03T03:39:20.957Z,60.24
2018-07-03T03:45:00.370Z,58.97
2018-07-03T03:47:34.456Z,58.50
2018-07-03T03:50:07.258Z,57.94
2018-07-03T03:52:39.808Z,57.38
2018-07-03T03:55:14.845Z,56.74
2018-07-03T03:57:50.817Z,55.62
2018-07-03T04:00:24.061Z,55.03
2018-07-03T04:03:03.007Z,54.49
2018-07-03T04:05:37.049Z,54.11
2018-07-03T04:08:09.829Z,53.54
2018-07-03T04:10:43.609Z,53.44
2018-07-03T04:13:17.995Z,53.22
2018-07-03T04:15:50.597Z,53.07
2018-07-03T04:18:28.714Z,52.78
2018-07-03T04:21:02.933Z,52.93
2018-07-03T04:23:50.960Z,52.94
2018-07-03T04:26:23.800Z,53.05
2018-07-03T04:28:57.642Z,53.07
2018-07-03T04:31:36.160Z,53.14
2018-07-03T04:34:14.309Z,52.89
2018-07-03T04:36:52.873Z,52.79
2018-07-03T04:39:32.062Z,52.61
2018-07-03T04:42:09.884Z,52.97
2018-07-03T04:44:47.862Z,52.90
2018-07-03T04:47:25.534Z,53.36
2018-07-03T04:50:04.328Z,54.03
2018-07-03T04:52:42.304Z,53.24
2018-07-03T04:55:23.193Z,53.72
2018-07-03T04:58:00.746Z,53.02
2018-07-03T05:00:39.606Z,52.04
2018-07-03T05:03:17.177Z,52.14
2018-07-03T05:05:54.894Z,51.64
2018-07-03T05:08:32.595Z,51.62
2018-07-03T05:11:11.487Z,52.20
2018-07-03T05:13:49.012Z,51.25
2018-07-03T05:16:28.440Z,52.03
2018-07-03T05:19:06.059Z,52.13
2018-07-03T05:21:43.597Z,52.50
2018-07-03T05:24:22.018Z,53.34
2018-07-03T05:27:00.485Z,52.79
2018-07-03T05:29:39.680Z,51.75
2018-07-03T05:32:18.598Z,52.38
2018-07-03T05:34:59.568Z,52.11
2018-07-03T05:37:37.200Z,51.94
2018-07-03T05:40:14.870Z,51.74
2018-07-03T05:42:54.874Z,51.23
2018-07-03T05:45:32.670Z,51.07
2018-07-03T05:48:10.463Z,50.46
2018-07-03T05:50:47.757Z,50.15
2018-07-03T05:53:25.152Z,49.98
2018-07-03T05:56:04.540Z,49.41
2018-07-03T05:58:41.942Z,48.85
2018-07-03T06:01:19.637Z,47.70
2018-07-03T06:03:57.406Z,46.94
2018-07-03T06:06:35.269Z,46.73
2018-07-03T06:09:13.314Z,45.94
2018-07-03T06:11:51.995Z,46.09
2018-07-03T06:14:29.494Z,46.11
2018-07-03T06:17:07.050Z,46.14
2018-07-03T06:19:45.580Z,45.88
2018-07-03T06:22:24.175Z,45.57
2018-07-03T06:25:01.996Z,45.03
2018-07-03T06:27:39.653Z,44.39
2018-07-03T06:30:19.782Z,43.74
2018-07-03T06:32:58.823Z,43.01
2018-07-03T06:35:37.453Z,37.96
2018-07-03T06:38:15.682Z,36.63
2018-07-03T06:40:53.160Z,36.00
2018-07-03T06:43:33.020Z,36.24
2018-07-03T06:46:10.455Z,35.56
2018-07-03T06:48:47.968Z,36.78
2018-07-03T06:51:30.664Z,36.71
2018-07-03T06:54:09.972Z,36.10
2018-07-03T06:56:47.740Z,34.27
2018-07-03T06:59:29.687Z,33.48
2018-07-03T07:02:08.538Z,33.90
2018-07-03T07:04:47.089Z,33.17
2018-07-03T07:07:24.776Z,33.24
2018-07-03T07:10:05.177Z,33.10
2018-07-03T07:12:43.472Z,32.68
2018-07-03T07:15:21.430Z,32.02
2018-07-03T07:17:58.865Z,32.58
2018-07-03T07:20:40.179Z,31.42
2018-07-03T07:23:19.204Z,29.01
2018-07-03T07:25:57.276Z,29.76
2018-07-03T07:28:36.907Z,30.07
2018-07-03T07:31:15.907Z,29.99
2018-07-03T07:34:00.710Z,29.62
2018-07-03T07:36:38.829Z,29.72
2018-07-03T07:39:17.471Z,29.11
2018-07-03T07:41:57.080Z,29.18
2018-07-03T07:44:34.612Z,27.35
2018-07-03T07:47:15.037Z,28.16
2018-07-03T07:49:53.272Z,29.21
2018-07-03T07:52:31.158Z,28.69
2018-07-03T07:55:13.936Z,27.50
2018-07-03T07:57:52.129Z,26.94
2018-07-03T08:00:29.608Z,25.40
2018-07-03T08:03:08.774Z,23.49
2018-07-03T08:05:47.694Z,20.98
2018-07-03T08:08:25.365Z,20.13
2018-07-03T08:11:03.298Z,19.48
2018-07-03T08:13:44.164Z,18.62
2018-07-03T08:16:23.459Z,18.91
2018-07-03T08:19:02.069Z,18.66
2018-07-03T08:21:39.445Z,18.34
2018-07-03T08:24:18.794Z,17.96
2018-07-03T08:26:57.997Z,18.11
2018-07-03T08:29:38.085Z,17.70
2018-07-03T08:32:18.743Z,17.15
2018-07-03T08:35:00.787Z,17.16
2018-07-03T08:37:38.509Z,17.27
2018-07-03T08:40:16.390Z,16.89
2018-07-03T08:42:53.807Z,16.48
2018-07-03T08:45:31.124Z,16.05
2018-07-03T08:48:09.941Z,16.47
2018-07-03T08:50:52.911Z,16.23
2018-07-03T08:53:31.648Z,17.68
2018-07-03T08:56:16.426Z,18.01
2018-07-03T08:58:55.416Z,17.96
2018-07-03T09:01:38.014Z,17.89
2018-07-03T09:04:16.754Z,17.53
2018-07-03T09:06:58.696Z,17.30
2018-07-03T09:09:39.718Z,17.02
2018-07-03T09:12:23.400Z,17.12
2018-07-03T09:15:03.856Z,17.04
2018-07-03T09:17:42.261Z,16.68
2018-07-03T09:20:24.593Z,16.17
2018-07-03T09:23:03.673Z,15.79
2018-07-03T09:25:42.539Z,16.32
2018-07-03T09:28:22.466Z,16.22
2018-07-03T09:31:00.401Z,15.78
2018-07-03T09:33:40.292Z,15.64
2018-07-03T09:36:20.179Z,15.62
2018-07-03T09:38:57.705Z,16.59
2018-07-03T09:41:46.393Z,16.92
2018-07-03T09:44:25.310Z,16.65
2018-07-03T09:47:04.009Z,16.65
2018-07-03T09:49:43.560Z,15.95
2018-07-03T09:52:23.959Z,16.19
2018-07-03T09:55:02.265Z,16.40
2018-07-03T09:57:45.610Z,16.82
2018-07-03T10:01:22.168Z,17.41
2018-07-03T10:04:58.169Z,17.84
2018-07-03T10:07:30.813Z,17.95
2018-07-03T10:10:12.540Z,17.70
2018-07-03T10:12:53.727Z,17.71
2018-07-03T10:15:42.945Z,16.86
2018-07-03T10:18:19.102Z,16.92
2018-07-03T10:20:52.033Z,17.08
2018-07-03T10:23:28.775Z,16.04
2018-07-03T10:26:02.777Z,16.40
2018-07-03T10:28:37.267Z,15.06
2018-07-03T10:31:10.936Z,15.41
2018-07-03T10:33:45.295Z,15.24
2018-07-03T10:36:19.393Z,15.57
2018-07-03T10:38:55.632Z,15.74
2018-07-03T10:41:35.192Z,16.24
2018-07-03T10:44:08.923Z,16.14
2018-07-03T10:46:52.484Z,16.43
2018-07-03T10:49:32.739Z,16.45
2018-07-03T10:53:18.377Z,16.62
2018-07-03T10:55:56.296Z,16.54
2018-07-03T10:58:32.776Z,16.21
2018-07-03T11:01:10.676Z,15.95
2018-07-03T11:03:45.513Z,15.38
2018-07-03T11:06:20.419Z,16.01
2018-07-03T11:08:56.381Z,16.43
2018-07-03T11:11:36.125Z,16.15
2018-07-03T11:14:11.188Z,16.31
2018-07-03T11:16:48.766Z,15.59
2018-07-03T11:19:27.971Z,16.06
2018-07-03T11:22:02.599Z,15.08
2018-07-03T11:24:39.858Z,14.62
2018-07-03T11:27:17.473Z,13.95
2018-07-03T11:29:50.969Z,14.40
2018-07-03T11:32:24.213Z,14.51
2018-07-03T11:34:58.208Z,14.03
2018-07-03T11:37:35.814Z,14.30
2018-07-03T11:40:09.885Z,14.80
2018-07-03T11:42:42.564Z,14.76
2018-07-03T11:45:16.673Z,15.29
2018-07-03T11:47:53.864Z,14.61
2018-07-03T11:50:29.654Z,14.70
2018-07-03T11:53:05.117Z,15.30
2018-07-03T11:55:38.992Z,15.00
2018-07-03T11:58:14.134Z,15.15
2018-07-03T12:00:50.289Z,15.26
2018-07-03T12:03:33.833Z,15.53
2018-07-03T12:06:10.478Z,15.69
2018-07-03T12:08:46.517Z,15.11
2018-07-03T12:11:20.681Z,15.54
2018-07-03T12:13:56.247Z,15.40
2018-07-03T12:16:36.372Z,15.30
2018-07-03T12:19:13.773Z,15.09
2018-07-03T12:21:53.225Z,14.96
2018-07-03T12:24:31.559Z,15.21
2018-07-03T12:27:10.400Z,14.98
2018-07-03T12:29:43.718Z,15.41
2018-07-03T12:32:37.970Z,15.09
2018-07-03T12:35:16.350Z,14.86
2018-07-03T12:37:52.626Z,14.49
2018-07-03T12:40:28.209Z,14.45
2018-07-03T12:43:06.182Z,14.39
2018-07-03T12:45:38.753Z,14.33
2018-07-03T12:48:16.806Z,14.20
2018-07-03T12:50:51.998Z,14.63
2018-07-03T12:53:29.143Z,15.11
2018-07-03T12:56:05.165Z,14.69
2018-07-03T12:58:38.664Z,14.45
2018-07-03T13:01:16.733Z,14.87
2018-07-03T13:03:51.425Z,14.47
2018-07-03T13:06:27.524Z,15.12
2018-07-03T13:09:02.232Z,14.87
2018-07-03T13:11:36.227Z,14.92
2018-07-03T13:14:09.714Z,14.50
2018-07-03T13:16:43.286Z,14.27
2018-07-03T13:19:18.861Z,14.58
2018-07-03T13:21:54.482Z,14.55
2018-07-03T13:24:35.186Z,14.33
2018-07-03T13:27:08.574Z,13.91
2018-07-03T13:29:41.311Z,14.54
2018-07-03T13:32:16.814Z,14.99
2018-07-03T13:34:51.252Z,14.44
2018-07-03T13:37:24.660Z,14.23
2018-07-03T13:40:13.780Z,14.71
2018-07-03T13:42:55.378Z,14.14
2018-07-03T13:45:50.705Z,13.96
2018-07-03T13:48:34.535Z,14.34
2018-07-03T13:51:08.366Z,13.80
2018-07-03T13:53:44.534Z,14.33
2018-07-03T13:56:17.390Z,14.24
2018-07-03T13:58:50.827Z,14.22
2018-07-03T14:01:31.797Z,13.73
2018-07-03T14:04:06.725Z,13.50
2018-07-03T14:06:41.629Z,13.80
2018-07-03T14:09:16.405Z,13.55
2018-07-03T14:11:50.145Z,12.85
2018-07-03T14:14:23.515Z,12.90
2018-07-03T14:17:03.381Z,12.15
2018-07-03T14:19:39.489Z,12.12
2018-07-03T14:22:12.635Z,11.60
2018-07-03T14:24:49.109Z,11.84
2018-07-03T14:27:27.853Z,11.79
2018-07-03T14:30:05.810Z,12.22
2018-07-03T14:32:45.677Z,12.44
2018-07-03T14:35:21.424Z,12.83
2018-07-03T14:37:56.106Z,13.80
2018-07-03T14:40:33.062Z,13.71
2018-07-03T14:43:08.929Z,14.07
2018-07-03T14:45:43.173Z,13.53
2018-07-03T14:48:20.133Z,13.04
2018-07-03T14:50:52.640Z,12.67
2018-07-03T14:53:28.062Z,13.01
2018-07-03T14:56:02.689Z,13.18
2018-07-03T14:58:37.383Z,13.15
2018-07-03T15:01:11.726Z,12.51
2018-07-03T15:03:45.086Z,12.57
2018-07-03T15:06:19.257Z,12.22
2018-07-03T15:08:53.210Z,12.61
2018-07-03T15:11:29.897Z,12.50
2018-07-03T15:14:06.136Z,12.31
2018-07-03T15:16:40.762Z,11.96
2018-07-03T15:19:23.996Z,11.67
2018-07-03T15:21:59.199Z,11.76
2018-07-03T15:24:37.590Z,11.82
2018-07-03T15:27:19.562Z,11.96
2018-07-03T15:29:54.306Z,12.07
2018-07-03T15:32:30.489Z,11.98
2018-07-03T15:35:08.389Z,11.57
2018-07-03T15:37:44.269Z,10.59
2018-07-03T15:40:19.881Z,10.37
2018-07-03T15:42:56.436Z,10.25
2018-07-03T15:45:31.876Z,10.57
2018-07-03T15:48:05.119Z,10.59
2018-07-03T15:50:39.424Z,10.98
2018-07-03T15:53:11.973Z,11.57
2018-07-03T15:55:46.520Z,11.64
2018-07-03T15:58:20.908Z,11.64
2018-07-03T16:00:55.194Z,11.93
2018-07-03T16:04:38.551Z,11.94
2018-07-03T16:07:44.879Z,12.00
2018-07-03T16:10:18.958Z,12.29
2018-07-03T16:12:53.405Z,11.79
2018-07-03T16:15:29.038Z,11.54
2018-07-03T16:18:13.930Z,11.40
2018-07-03T16:20:52.110Z,11.59
2018-07-03T16:23:31.466Z,11.25
2018-07-03T16:26:08.364Z,11.51
2018-07-03T16:28:42.544Z,12.02
2018-07-03T16:31:15.665Z,11.75
2018-07-03T16:33:50.180Z,11.96
2018-07-03T16:36:23.710Z,11.64
2018-07-03T16:38:58.456Z,11.53
2018-07-03T16:41:36.305Z,11.51
2018-07-03T16:44:30.372Z,11.88
2018-07-03T16:47:04.698Z,12.22
2018-07-03T16:49:40.780Z,12.76
2018-07-03T16:52:13.577Z,13.07
2018-07-03T16:54:49.309Z,13.06
2018-07-03T16:57:25.217Z,13.20
2018-07-03T16:59:59.100Z,12.88
2018-07-03T17:02:34.530Z,13.27
2018-07-03T17:05:10.068Z,13.16
2018-07-03T17:07:43.521Z,13.26
2018-07-03T17:10:16.570Z,13.00
2018-07-03T17:12:52.087Z,12.72
2018-07-03T17:15:24.654Z,12.16
2018-07-03T17:18:23.055Z,12.26
2018-07-03T17:20:56.248Z,12.26
2018-07-03T17:23:30.644Z,12.61
2018-07-03T17:26:08.502Z,12.56
2018-07-03T17:28:49.641Z,12.60
2018-07-03T17:31:31.051Z,12.78
2018-07-03T17:34:16.499Z,12.29
2018-07-03T17:36:55.823Z,12.42
2018-07-03T17:39:52.826Z,12.52
2018-07-03T17:43:00.137Z,12.96
2018-07-03T17:46:00.586Z,13.16
2018-07-03T17:48:42.382Z,13.66
2018-07-03T17:51:17.383Z,13.02
2018-07-03T17:53:56.823Z,13.12
2018-07-03T17:56:48.462Z,13.50
2018-07-03T17:59:28.763Z,14.13
2018-07-03T18:02:27.208Z,14.51
2018-07-03T18:05:12.691Z,14.61
2018-07-03T18:07:58.616Z,15.38
2018-07-03T18:10:39.595Z,14.30
2018-07-03T18:13:14.920Z,14.90
2018-07-03T18:15:54.336Z,14.80
2018-07-03T18:18:33.606Z,15.32
2018-07-03T18:21:11.932Z,15.60
2018-07-03T18:23:50.570Z,16.23
2018-07-03T18:26:24.326Z,17.53
2018-07-03T18:28:58.042Z,18.11
2018-07-03T18:31:30.678Z,18.41
2018-07-03T18:34:05.567Z,18.97
2018-07-03T18:36:56.911Z,18.89
2018-07-03T18:39:30.721Z,19.05
2018-07-03T18:42:05.398Z,19.04
2018-07-03T18:44:39.986Z,19.74
2018-07-03T18:47:19.548Z,20.32
2018-07-03T18:49:54.915Z,21.21
2018-07-03T18:52:29.941Z,22.16
2018-07-03T18:55:07.535Z,23.28
2018-07-03T18:57:41.827Z,24.30
2018-07-03T19:00:19.164Z,25.56
2018-07-03T19:02:54.298Z,26.50
2018-07-03T19:05:29.391Z,27.28
2018-07-03T19:08:07.354Z,27.56
2018-07-03T19:10:39.918Z,27.61
2018-07-03T19:13:15.818Z,27.94
2018-07-03T19:15:49.154Z,29.37
2018-07-03T19:18:23.740Z,29.95
2018-07-03T19:21:01.439Z,30.94
2018-07-03T19:23:39.230Z,31.79
2018-07-03T19:26:15.653Z,32.74
2018-07-03T19:28:49.311Z,33.35
2018-07-03T19:31:26.025Z,34.33
2018-07-03T19:34:04.672Z,35.30
2018-07-03T19:36:38.490Z,36.68
2018-07-03T19:42:24.590Z,38.09
2018-07-03T19:45:00.678Z,39.92
2018-07-03T19:47:44.818Z,39.13
2018-07-03T19:50:23.091Z,38.52
2018-07-03T19:52:57.421Z,37.52
2018-07-03T19:55:33.336Z,36.92
2018-07-03T19:58:06.480Z,37.02
2018-07-03T20:00:46.550Z,37.58
2018-07-03T20:03:21.819Z,39.09
2018-07-03T20:06:01.545Z,41.18
2018-07-03T20:08:42.355Z,43.17
2018-07-03T20:11:22.657Z,44.07
2018-07-03T20:13:55.470Z,44.23
2018-07-03T20:16:31.425Z,44.07
2018-07-03T20:19:11.858Z,44.11
2018-07-03T20:21:47.311Z,45.12
2018-07-03T20:24:25.228Z,43.50
2018-07-03T20:26:59.816Z,45.30
2018-07-03T20:29:33.702Z,44.18
2018-07-03T20:32:12.819Z,41.47
2018-07-03T20:34:49.269Z,41.38
2018-07-03T20:37:52.964Z,41.94
2018-07-03T20:40:51.701Z,43.79
2018-07-03T20:43:30.993Z,44.27
2018-07-03T20:46:07.045Z,44.95
2018-07-03T20:48:41.732Z,45.88
2018-07-03T20:51:52.045Z,45.60
2018-07-03T20:54:43.862Z,47.78
2018-07-03T20:57:34.087Z,47.90
2018-07-03T21:00:10.637Z,48.50
2018-07-03T21:02:51.589Z,48.79
2018-07-03T21:05:48.432Z,49.03
2018-07-03T21:08:25.639Z,49.42
2018-07-03T21:11:01.543Z,49.89
2018-07-03T21:13:35.698Z,50.22
2018-07-03T21:16:11.821Z,50.23
2018-07-03T21:18:52.053Z,50.70
2018-07-03T21:21:33.461Z,50.84
2018-07-03T21:24:08.968Z,50.70
2018-07-03T21:26:44.725Z,51.08
2018-07-03T21:29:27.691Z,51.54
2018-07-03T21:32:12.233Z,51.97
2018-07-03T21:34:46.108Z,53.20
2018-07-03T21:37:24.234Z,52.05
2018-07-03T21:40:01.742Z,53.21
2018-07-03T21:42:47.220Z,53.63
2018-07-03T21:45:23.191Z,53.75
2018-07-03T21:47:56.846Z,53.94
2018-07-03T21:50:32.982Z,53.92
2018-07-03T21:53:12.638Z,54.55
2018-07-03T21:55:46.550Z,55.21
2018-07-03T21:58:27.790Z,55.42
2018-07-03T22:01:04.154Z,55.79
2018-07-03T22:03:52.362Z,56.30
2018-07-03T22:06:30.422Z,56.00
2018-07-03T22:09:07.256Z,55.77
2018-07-03T22:11:40.540Z,55.42
2018-07-03T22:14:15.770Z,55.28
2018-07-03T22:16:48.821Z,55.84
2018-07-03T22:19:26.243Z,55.14
2018-07-03T22:21:59.945Z,55.09
2018-07-03T22:24:37.969Z,54.85
2018-07-03T22:27:12.382Z,54.70
2018-07-03T22:29:44.934Z,54.89
2018-07-03T22:32:18.523Z,54.84
2018-07-03T22:34:51.566Z,54.53
2018-07-03T22:37:26.210Z,54.39
2018-07-03T22:40:00.247Z,53.62
2018-07-03T22:42:35.112Z,53.33
2018-07-03T22:45:07.613Z,51.99
2018-07-03T22:47:43.668Z,51.89
2018-07-03T22:50:17.088Z,51.20
2018-07-03T22:52:49.752Z,50.40
2018-07-03T22:55:26.690Z,49.54
2018-07-03T22:58:00.358Z,47.05
2018-07-03T23:00:35.721Z,47.10
2018-07-03T23:03:08.521Z,46.21
2018-07-03T23:05:41.014Z,46.12
2018-07-03T23:08:14.710Z,45.67
2018-07-03T23:10:51.121Z,45.24
2018-07-03T23:13:28.712Z,44.28
2018-07-03T23:16:06.705Z,43.79
2018-07-03T23:18:40.371Z,43.46
2018-07-03T23:21:16.593Z,41.93
2018-07-03T23:23:49.119Z,41.96
2018-07-03T23:26:23.171Z,41.98
2018-07-03T23:28:57.010Z,41.71
2018-07-03T23:31:30.698Z,41.84
2018-07-03T23:34:03.941Z,41.35
2018-07-03T23:36:46.480Z,41.34
2018-07-03T23:39:19.899Z,41.39
2018-07-03T23:41:52.883Z,41.38
2018-07-03T23:44:26.739Z,41.36
2018-07-03T23:47:24.577Z,41.23
2018-07-03T23:50:19.454Z,41.24
2018-07-03T23:53:15.003Z,46.49
2018-07-03T23:56:10.681Z,51.80
2018-07-03T23:59:05.625Z,56.45
